Time;durP1;ratioP1;P1;durP2;ratioP2;P2;SDS_P1;SDS_P2;PMS_P1;PMS_P2;Temp;Humidity;BMP_temperature;BMP_pressure;BME280_temperature;BME280_humidity;BME280_pressure;Samples;Min_cycle;Max_cycle;Signal;HPM_P1;HPM_P2
2023/01/20 00:00:39;;;;;;;9.10;3.90;;;;;;;;;;4914126;29;20143;-74
2023/01/20 00:03:05;;;;;;;12.88;4.40;;;;;;;;;;4884190;29;20511;-74
2023/01/20 00:05:31;;;;;;;6.85;3.92;;;;;;;;;;4886782;29;20401;-75
2023/01/20 00:07:57;;;;;;;5.93;3.88;;;;;;;;;;4885423;29;20044;-75
2023/01/20 00:10:23;;;;;;;9.23;4.53;;;;;;;;;;4891397;29;20051;-75
2023/01/20 00:12:49;;;;;;;5.47;4.45;;;;;;;;;;4929175;29;20040;-75
2023/01/20 00:15:15;;;;;;;7.40;4.70;;;;;;;;;;4901198;29;20044;-75
2023/01/20 00:17:41;;;;;;;8.20;4.95;;;;;;;;;;4901273;29;20440;-74
2023/01/20 00:20:08;;;;;;;8.85;4.88;;;;;;;;;;4916960;29;20043;-74
2023/01/20 00:22:40;;;;;;;9.40;5.00;;;;;;;;;;4915257;29;20048;-74
2023/01/20 00:25:07;;;;;;;10.25;5.35;;;;;;;;;;4931994;29;20400;-74
2023/01/20 00:27:33;;;;;;;11.90;6.10;;;;;;;;;;4899823;29;20040;-74
2023/01/20 00:29:59;;;;;;;14.20;6.00;;;;;;;;;;4917430;29;20048;-74
2023/01/20 00:32:25;;;;;;;13.75;7.25;;;;;;;;;;4899834;29;20445;-74
2023/01/20 00:34:51;;;;;;;13.63;6.60;;;;;;;;;;4906037;29;20502;-74
2023/01/20 00:37:17;;;;;;;12.77;6.70;;;;;;;;;;4920393;29;20117;-75
2023/01/20 00:39:43;;;;;;;12.55;6.05;;;;;;;;;;4934630;29;20031;-75
2023/01/20 00:42:09;;;;;;;10.43;6.03;;;;;;;;;;4910524;29;20078;-75
2023/01/20 00:44:35;;;;;;;8.65;6.03;;;;;;;;;;4920150;29;20480;-75
2023/01/20 00:47:01;;;;;;;7.95;5.32;;;;;;;;;;4920489;29;20447;-75
2023/01/20 00:49:28;;;;;;;8.23;6.22;;;;;;;;;;4904153;29;20042;-75
2023/01/20 00:51:54;;;;;;;12.20;6.32;;;;;;;;;;4909810;29;20108;-75
2023/01/20 00:54:20;;;;;;;10.45;5.75;;;;;;;;;;4889536;29;20131;-75
2023/01/20 00:56:46;;;;;;;11.80;7.20;;;;;;;;;;4915276;29;20447;-75
2023/01/20 00:59:12;;;;;;;14.75;6.57;;;;;;;;;;4903252;29;20040;-74
2023/01/20 01:01:38;;;;;;;14.00;7.13;;;;;;;;;;4906441;29;20043;-74
2023/01/20 01:04:04;;;;;;;11.85;6.68;;;;;;;;;;4904040;29;20055;-74
2023/01/20 01:06:30;;;;;;;11.05;6.45;;;;;;;;;;4896906;29;20056;-74
2023/01/20 01:08:56;;;;;;;10.30;7.05;;;;;;;;;;4933477;29;20044;-74
2023/01/20 01:11:22;;;;;;;14.52;7.03;;;;;;;;;;4920297;29;20385;-73
2023/01/20 01:13:49;;;;;;;13.98;7.47;;;;;;;;;;4903978;29;20043;-72
2023/01/20 01:16:15;;;;;;;12.45;8.25;;;;;;;;;;4916247;29;20067;-73
2023/01/20 01:18:41;;;;;;;18.58;8.95;;;;;;;;;;4902261;29;20060;-73
2023/01/20 01:21:09;;;;;;;11.18;7.10;;;0.90;99.90;;;;;;4906959;29;20075;-73
2023/01/20 01:23:36;;;;;;;13.88;8.02;;;;;;;;;;4916210;29;20120;-72
2023/01/20 01:26:02;;;;;;;16.30;8.18;;;;;;;;;;4888043;29;20115;-73
2023/01/20 01:28:28;;;;;;;14.95;9.05;;;;;;;;;;4919326;29;20166;-73
2023/01/20 01:30:54;;;;;;;18.83;8.65;;;;;;;;;;4916733;29;20127;-73
2023/01/20 01:33:20;;;;;;;16.13;9.43;;;;;;;;;;4871505;29;20425;-73
2023/01/20 01:35:59;;;;;;;19.00;9.85;;;;;;;;;;4902169;29;20460;-73
2023/01/20 01:38:26;;;;;;;16.83;9.93;;;;;;;;;;4902951;29;20341;-73
2023/01/20 01:40:53;;;;;;;16.52;8.80;;;;;;;;;;4902575;29;20043;-73
2023/01/20 01:43:29;;;;;;;20.33;9.55;;;;;;;;;;4909522;29;21449;-73
2023/01/20 01:45:56;;;;;;;18.98;9.52;;;;;;;;;;4897320;29;20050;-73
2023/01/20 01:48:24;;;;;;;15.65;9.00;;;;;;;;;;4901941;29;20095;-73
2023/01/20 01:50:57;;;;;;;23.70;8.45;;;;;;;;;;4917480;29;20056;-73
2023/01/20 01:53:24;;;;;;;18.88;8.95;;;;;;;;;;4919369;29;20039;-73
2023/01/20 01:55:55;;;;;;;16.25;9.32;;;0.70;99.90;;;;;;4911461;29;20048;-72
2023/01/20 01:58:25;;;;;;;16.60;8.65;;;0.80;99.90;;;;;;4902532;29;20040;-73
2023/01/20 02:00:51;;;;;;;17.05;8.40;;;;;;;;;;4902888;29;20118;-73
2023/01/20 02:03:17;;;;;;;16.85;8.25;;;;;;;;;;4918679;29;20058;-73
2023/01/20 02:05:45;;;;;;;20.73;8.00;;;0.60;99.90;;;;;;4918461;29;20071;-73
2023/01/20 02:08:11;;;;;;;14.35;7.55;;;;;;;;;;4918369;29;20119;-73
2023/01/20 02:10:37;;;;;;;12.35;7.40;;;;;;;;;;4917532;29;20036;-73
2023/01/20 02:13:03;;;;;;;14.27;7.80;;;;;;;;;;4918897;29;20046;-73
2023/01/20 02:15:33;;;;;;;18.35;8.45;;;;;;;;;;4906593;29;20040;-73
2023/01/20 02:18:05;;;;;;;12.75;6.90;;;;;;;;;;4904688;29;20039;-73
2023/01/20 02:20:31;;;;;;;11.70;6.70;;;;;;;;;;4902068;29;20405;-73
2023/01/20 02:23:34;;;;;;;10.77;6.50;;;0.70;99.90;;;;;;4901189;29;20062;-73
2023/01/20 02:26:24;;;;;;;10.65;6.10;;;0.60;99.90;;;;;;4910201;29;20519;-73
2023/01/20 02:28:53;;;;;;;11.70;6.32;;;;;;;;;;4886731;29;20048;-73
2023/01/20 02:31:23;;;;;;;11.15;5.70;;;;;;;;;;4916157;29;20126;-73
2023/01/20 02:34:07;;;;;;;11.57;5.90;;;;;;;;;;4917259;29;20392;-73
2023/01/20 02:36:39;;;;;;;12.48;5.70;;;;;;;;;;4902314;29;20126;-73
2023/01/20 02:39:18;;;;;;;11.85;5.40;;;0.70;99.90;;;;;;4918022;29;20039;-73
2023/01/20 02:42:01;;;;;;;10.55;5.20;;;0.70;99.90;;;;;;4918483;29;20035;-73
2023/01/20 02:44:30;;;;;;;10.35;5.65;;;;;;;;;;4916853;29;20046;-73
2023/01/20 02:47:01;;;;;;;8.02;5.15;;;;;;;;;;4918032;29;20048;-73
2023/01/20 02:49:31;;;;;;;12.65;6.22;;;0.30;99.90;;;;;;4902126;29;20044;-73
2023/01/20 02:52:09;;;;;;;8.02;4.97;;;0.50;99.90;;;;;;4913830;29;20507;-73
2023/01/20 02:54:39;;;;;;;14.48;6.13;;;0.50;99.90;;;;;;4917487;29;20432;-73
2023/01/20 02:57:08;;;;;;;10.23;5.80;;;0.50;99.90;;;;;;4900364;29;20428;-73
2023/01/20 02:59:37;;;;;;;13.07;5.82;;;;;;;;;;4913831;29;20043;-73
2023/01/20 03:02:09;;;;;;;9.50;6.22;;;0.70;99.90;;;;;;4899200;29;20482;-73
2023/01/20 03:04:41;;;;;;;13.18;6.55;;;;;;;;;;4916139;29;20044;-73
2023/01/20 03:07:09;;;;;;;14.57;7.00;;;;;;;;;;4905345;29;20039;-73
2023/01/20 03:09:43;;;;;;;10.32;6.25;;;0.40;99.90;;;;;;4917015;29;20051;-73
2023/01/20 03:12:13;;;;;;;11.00;6.82;;;;;;;;;;4899507;29;20075;-73
2023/01/20 03:14:39;;;;;;;14.27;7.50;;;;;;;;;;4889553;29;20551;-73
2023/01/20 03:17:05;;;;;;;14.27;7.53;;;;;;;;;;4900423;29;20036;-73
2023/01/20 03:19:31;;;;;;;16.52;8.30;;;;;;;;;;4900157;29;20044;-73
2023/01/20 03:21:57;;;;;;;14.55;7.82;;;;;;;;;;4906801;29;20118;-73
2023/01/20 03:24:25;;;;;;;15.85;8.35;;;;;;;;;;4915791;29;20056;-73
2023/01/20 03:26:51;;;;;;;17.90;8.52;;;;;;;;;;4905193;29;20051;-73
2023/01/20 03:29:17;;;;;;;14.57;8.18;;;;;;;;;;4884846;29;20058;-73
2023/01/20 03:31:46;;;;;;;18.40;8.23;;;;;;;;;;4911558;29;20119;-73
2023/01/20 03:34:16;;;;;;;15.10;8.32;;;0.60;99.90;;;;;;4901491;29;20046;-73
2023/01/20 03:36:43;;;;;;;17.35;8.73;;;0.60;99.90;;;;;;4916954;29;20039;-73
2023/01/20 03:39:09;;;;;;;15.65;8.90;;;;;;;;;;4911375;29;20131;-73
2023/01/20 03:41:47;;;;;;;19.98;9.30;;;;;;;;;;4893183;29;20036;-73
2023/01/20 03:44:20;;;;;;;20.50;8.85;;;0.70;99.90;;;;;;4908063;29;20050;-73
2023/01/20 03:46:46;;;;;;;;;;;0.60;99.90;;;;;;4901801;29;20047;-73
2023/01/20 03:49:17;;;;;;;16.42;9.00;;;;;;;;;;4916906;29;19926;-73
2023/01/20 03:51:57;;;;;;;17.63;9.10;;;0.60;99.90;;;;;;4916690;29;20044;-73
2023/01/20 03:54:25;;;;;;;16.33;8.95;;;;;;;;;;4914401;29;20048;-73
2023/01/20 03:57:02;;;;;;;21.33;9.10;;;0.50;99.90;;;;;;4898872;29;20087;-73
2023/01/20 03:59:30;;;;;;;18.30;9.20;;;;;;;;;;4904054;29;20091;-73
2023/01/20 04:01:56;;;;;;;20.08;9.43;;;;;;;;;;4916716;29;20039;-73
2023/01/20 04:04:22;;;;;;;20.83;9.60;;;;;;;;;;4914787;29;20084;-73
2023/01/20 04:06:49;;;;;;;18.75;10.15;;;;;;;;;;4883825;29;20051;-73
2023/01/20 04:09:22;;;;;;;20.13;11.07;;;0.70;99.90;;;;;;4909189;29;20058;-73
2023/01/20 04:11:48;;;;;;;19.42;10.63;;;;;;;;;;4898732;29;20044;-73
2023/01/20 04:14:14;;;;;;;23.88;10.38;;;;;;;;;;4900786;29;20460;-73
2023/01/20 04:16:40;;;;;;;19.10;10.05;;;;;;;;;;4907884;29;20039;-73
2023/01/20 04:19:06;;;;;;;24.23;10.85;;;;;;;;;;4884269;29;20037;-74
2023/01/20 04:21:46;;;;;;;22.17;11.35;;;0.60;99.90;;;;;;4899837;29;20479;-73
2023/01/20 04:24:18;;;;;;;24.70;12.32;;;0.60;99.90;;;;;;4930026;29;20063;-73
2023/01/20 04:26:44;;;;;;;21.30;11.57;;;;;;;;;;4903907;29;20054;-73
2023/01/20 04:29:10;;;;;;;23.90;11.88;;;;;;;;;;4891678;29;20054;-73
2023/01/20 04:31:37;;;;;;;22.17;11.45;;;;;;;;;;4916405;29;20044;-75
2023/01/20 04:34:04;;;;;;;24.77;12.88;;;;;;;;;;4916734;29;20039;-76
2023/01/20 04:36:30;;;;;;;28.92;13.13;;;;;;;;;;4887909;29;20046;-76
2023/01/20 04:38:56;;;;;;;27.60;13.55;;;;;;;;;;4908977;29;20043;-76
2023/01/20 04:41:22;;;;;;;25.10;12.98;;;;;;;;;;4890036;29;20099;-76
2023/01/20 04:43:48;;;;;;;26.65;13.82;;;;;;;;;;4896013;29;20043;-76
2023/01/20 04:46:15;;;;;;;34.17;15.90;;;0.60;99.90;;;;;;4913448;29;20448;-76
2023/01/20 04:48:46;;;;;;;34.17;15.98;;;;;;;;;;4885013;29;20099;-75
2023/01/20 04:51:13;;;;;;;41.85;16.58;;;;;;;;;;4916172;29;20488;-76
2023/01/20 04:53:39;;;;;;;38.50;14.88;;;;;;;;;;4900901;29;20032;-76
2023/01/20 04:56:09;;;;;;;30.92;15.60;;;;;;;;;;4912623;29;20092;-76
2023/01/20 04:58:35;;;;;;;36.42;16.92;;;;;;;;;;4904269;29;20040;-76
2023/01/20 05:01:02;;;;;;;33.10;16.35;;;;;;;;;;4906327;29;20508;-76
2023/01/20 05:03:30;;;;;;;33.75;16.90;;;;;;;;;;4901026;29;20395;-76
2023/01/20 05:05:56;;;;;;;36.40;16.77;;;;;;;;;;4928494;29;20082;-76
2023/01/20 05:08:22;;;;;;;37.90;17.85;;;;;;;;;;4900361;29;20047;-76
2023/01/20 05:10:49;;;;;;;37.63;17.42;;;;;;;;;;4899212;29;20043;-76
2023/01/20 05:13:15;;;;;;;36.20;15.75;;;;;;;;;;4916061;29;20071;-76
2023/01/20 05:15:42;;;;;;;41.20;18.70;;;0.70;99.90;;;;;;4911591;29;20035;-76
2023/01/20 05:18:08;;;;;;;38.47;17.70;;;;;;;;;;4919523;29;20050;-76
2023/01/20 05:20:34;;;;;;;38.83;18.13;;;;;;;;;;4900779;29;20418;-76
2023/01/20 05:23:00;;;;;;;41.78;18.67;;;;;;;;;;4898885;29;20055;-76
2023/01/20 05:25:27;;;;;;;42.90;19.02;;;;;;;;;;4900231;29;20504;-76
2023/01/20 05:27:53;;;;;;;45.53;19.85;;;;;;;;;;4900659;29;20401;-76
2023/01/20 05:30:19;;;;;;;50.92;21.15;;;;;;;;;;4895502;29;20036;-76
2023/01/20 05:32:45;;;;;;;44.25;19.88;;;;;;;;;;4895584;29;20450;-76
2023/01/20 05:35:11;;;;;;;50.55;20.80;;;;;;;;;;4883835;29;20040;-76
2023/01/20 05:37:37;;;;;;;45.45;19.88;;;;;;;;;;4888553;29;20119;-75
2023/01/20 05:40:04;;;;;;;50.28;20.23;;;;;;;;;;4888987;29;20108;-75
2023/01/20 05:42:32;;;;;;;50.88;22.02;;;;;;;;;;4893416;29;20044;-76
2023/01/20 05:44:58;;;;;;;54.65;21.63;;;;;;;;;;4900374;29;20111;-76
2023/01/20 05:47:24;;;;;;;51.53;21.88;;;;;;;;;;4899009;29;20043;-76
2023/01/20 05:49:50;;;;;;;50.67;21.27;;;;;;;;;;4900163;29;20111;-76
2023/01/20 05:52:16;;;;;;;51.15;21.20;;;;;;;;;;4897358;29;20032;-73
2023/01/20 05:54:42;;;;;;;59.28;19.95;;;;;;;;;;4900204;29;20032;-73
2023/01/20 05:57:08;;;;;;;46.58;20.33;;;;;;;;;;4876827;29;20032;-73
2023/01/20 05:59:34;;;;;;;51.13;20.33;;;;;;;;;;4883393;29;20041;-73
2023/01/20 06:02:00;;;;;;;85.45;19.50;;;;;;;;;;4884160;29;20385;-73
2023/01/20 06:04:26;;;;;;;71.65;19.60;;;;;;;;;;4883385;29;20405;-73
2023/01/20 06:06:53;;;;;;;91.28;20.95;;;;;;;;;;4868730;29;20468;-73
2023/01/20 06:09:19;;;;;;;67.80;20.85;;;;;;;;;;4891933;29;20082;-73
2023/01/20 06:11:45;;;;;;;88.60;20.92;;;;;;;;;;4882990;29;20040;-73
2023/01/20 06:14:11;;;;;;;59.33;21.52;;;;;;;;;;4880259;29;20047;-73
2023/01/20 06:16:37;;;;;;;78.20;22.25;;;;;;;;;;4868882;29;20130;-74
2023/01/20 06:19:04;;;;;;;113.25;22.75;;;;;;;;;;4899610;29;20123;-75
2023/01/20 06:21:30;;;;;;;72.32;24.15;;;;;;;;;;4899931;29;20047;-73
2023/01/20 06:23:56;;;;;;;62.15;23.55;;;;;;;;;;4894126;29;20064;-74
2023/01/20 06:26:22;;;;;;;61.50;23.80;;;;;;;;;;4910534;29;20618;-74
2023/01/20 06:28:48;;;;;;;70.38;25.10;;;;;;;;;;4917112;29;20039;-74
2023/01/20 06:31:15;;;;;;;84.88;25.02;;;0.70;99.90;;;;;;4904498;29;20055;-74
2023/01/20 06:33:41;;;;;;;84.32;26.13;;;;;;;;;;4888943;29;20043;-74
2023/01/20 06:36:09;;;;;;;68.85;24.90;;;;;;;;;;4904805;29;20126;-74
2023/01/20 06:38:36;;;;;;;75.68;25.27;;;;;;;;;;4920284;29;20488;-74
2023/01/20 06:41:04;;;;;;;80.30;26.00;;;;;;;;;;4920262;29;20077;-74
2023/01/20 06:43:31;;;;;;;78.65;25.77;;;;;;;;;;4919504;29;20054;-74
2023/01/20 06:46:04;;;;;;;85.05;27.55;;;0.90;99.90;;;;;;4919244;29;20432;-74
2023/01/20 06:48:31;;;;;;;79.65;27.10;;;;;;;;;;4919332;29;20591;-74
2023/01/20 06:51:05;;;;;;;83.88;27.13;;;;;;;;;;4919099;29;20054;-75
2023/01/20 06:53:31;;;;;;;107.75;29.73;;;;;;;;;;4919282;29;20114;-74
2023/01/20 06:55:58;;;;;;;98.10;29.38;;;0.90;99.90;;;;;;4918883;29;20047;-74
2023/01/20 06:58:25;;;;;;;100.30;30.25;;;0.90;99.90;;;;;;4915902;29;20043;-74
2023/01/20 07:00:51;;;;;;;93.07;30.77;;;;;;;;;;4911249;29;20102;-75
2023/01/20 07:03:18;;;;;;;98.82;30.20;;;;;;;;;;4908383;29;20071;-74
2023/01/20 07:05:44;;;;;;;99.40;30.35;;;;;;;;;;4918837;29;20052;-75
2023/01/20 07:08:10;;;;;;;96.57;30.77;;;;;;;;;;4888836;29;20047;-75
2023/01/20 07:10:36;;;;;;;95.00;31.65;;;;;;;;;;4909307;29;20123;-74
2023/01/20 07:13:02;;;;;;;109.72;33.42;;;;;;;;;;4900879;29;20044;-74
2023/01/20 07:15:29;;;;;;;114.05;33.05;;;;;;;;;;4873579;29;20027;-74
2023/01/20 07:17:55;;;;;;;109.18;31.60;;;;;;;;;;4911782;29;20040;-74
2023/01/20 07:20:21;;;;;;;112.57;32.97;;;;;;;;;;4907381;29;20059;-75
2023/01/20 07:22:47;;;;;;;116.53;32.65;;;;;;;;;;4904492;29;20096;-75
2023/01/20 07:25:13;;;;;;;119.80;36.08;;;;;;;;;;4888790;29;20058;-74
2023/01/20 07:27:39;;;;;;;129.95;36.38;;;;;;;;;;4909100;29;20036;-75
2023/01/20 07:30:05;;;;;;;131.95;36.83;;;;;;;;;;4893783;29;20048;-75
2023/01/20 07:32:31;;;;;;;112.53;35.10;;;;;;;;;;4903268;29;20060;-72
2023/01/20 07:34:57;;;;;;;128.85;37.90;;;;;;;;;;4907449;29;20047;-75
2023/01/20 07:37:23;;;;;;;150.25;39.55;;;;;;;;;;4887433;29;20209;-75
2023/01/20 07:39:50;;;;;;;135.80;39.63;;;;;;;;;;4907320;29;20476;-75
2023/01/20 07:42:16;;;;;;;141.68;39.78;;;;;;;;;;4899845;29;20044;-75
2023/01/20 07:44:42;;;;;;;132.93;38.05;;;;;;;;;;4900191;29;20512;-75
2023/01/20 07:47:08;;;;;;;125.63;36.30;;;;;;;;;;4900193;29;20059;-75
2023/01/20 07:49:34;;;;;;;125.40;37.67;;;;;;;;;;4884848;29;20044;-75
2023/01/20 07:52:00;;;;;;;119.13;36.70;;;;;;;;;;4879089;29;20094;-75
2023/01/20 07:54:26;;;;;;;126.00;36.53;;;;;;;;;;4918889;29;20484;-75
2023/01/20 07:56:52;;;;;;;127.40;36.10;;;;;;;;;;4887872;29;20032;-75
2023/01/20 07:59:18;;;;;;;133.60;35.55;;;;;;;;;;4902289;29;20031;-75
2023/01/20 08:01:44;;;;;;;127.00;35.05;;;;;;;;;;4913981;29;20175;-84
2023/01/20 08:04:11;;;;;;;139.23;35.92;;;;;;;;;;4901299;29;20130;-75
2023/01/20 08:06:38;;;;;;;139.45;36.42;;;;;;;;;;4906444;29;20050;-74
2023/01/20 08:09:04;;;;;;;123.93;34.03;;;;;;;;;;4905963;29;20171;-76
2023/01/20 08:11:31;;;;;;;124.50;36.25;;;;;;;;;;4906962;29;20044;-76
2023/01/20 08:13:57;;;;;;;133.13;35.80;;;;;;;;;;4891376;29;20035;-74
2023/01/20 08:16:23;;;;;;;134.18;35.25;;;;;;;;;;4909636;29;20040;-75
2023/01/20 08:18:52;;;;;;;126.22;34.97;;;;;;;;;;4902155;29;20455;-76
2023/01/20 08:21:23;;;;;;;133.20;34.80;;;;;;;;;;4910022;29;20036;-75
2023/01/20 08:23:50;;;;;;;132.35;38.25;;;;;;;;;;4885089;29;20511;-75
2023/01/20 08:26:16;;;;;;;135.02;35.10;;;;;;;;;;4890181;29;20404;-75
2023/01/20 08:28:42;;;;;;;114.15;34.13;;;;;;;;;;4909480;29;20044;-74
2023/01/20 08:31:14;;;;;;;137.15;38.50;;;1.30;99.90;;;;;;4893743;29;20131;-75
2023/01/20 08:33:41;;;;;;;116.97;35.42;;;;;;;;;;4918675;29;20039;-76
2023/01/20 08:36:34;;;;;;;146.25;37.08;;;;;;;;;;4889057;29;20040;-76
2023/01/20 08:39:01;;;;;;;123.43;34.50;;;;;;;;;;4912625;29;20118;-77
2023/01/20 08:41:29;;;;;;;126.93;34.28;;;;;;;;;;4894614;29;20099;-76
2023/01/20 08:43:55;;;;;;;134.45;39.40;;;;;;;;;;4896618;29;20048;-76
2023/01/20 08:46:25;;;;;;;145.27;36.63;;;;;;;;;;4906526;29;20114;-77
2023/01/20 08:48:51;;;;;;;145.98;37.53;;;;;;;;;;4914940;29;20052;-75
2023/01/20 08:51:23;;;;;;;139.45;36.67;;;;;;;;;;4903574;29;20043;-77
2023/01/20 08:53:50;;;;;;;135.85;36.45;;;;;;;;;;4918952;29;20039;-75
2023/01/20 08:56:28;;;;;;;140.77;38.13;;;;;;;;;;4918637;29;20046;-76
2023/01/20 08:58:58;;;;;;;143.50;37.50;;;;;;;;;;4931859;29;20044;-76
2023/01/20 09:01:26;;;;;;;137.32;36.15;;;;;;;;;;4875603;29;20098;-77
2023/01/20 09:03:56;;;;;;;145.13;36.22;;;1.50;99.90;;;;;;4897735;29;20075;-76
2023/01/20 09:06:23;;;;;;;152.57;37.90;;;;;;;;;;4900379;29;20047;-76
2023/01/20 09:08:50;;;;;;;145.70;38.13;;;1.40;99.90;;;;;;4898793;29;20043;-76
2023/01/20 09:11:17;;;;;;;148.50;36.28;;;;;;;;;;4909837;29;20091;-76
2023/01/20 09:13:44;;;;;;;135.43;35.38;;;;;;;;;;4900944;29;20524;-76
2023/01/20 09:16:14;;;;;;;157.15;36.83;;;;;;;;;;4900678;29;20036;-76
2023/01/20 09:18:40;;;;;;;147.10;35.75;;;;;;;;;;4902288;29;20134;-76
2023/01/20 09:21:07;;;;;;;134.23;36.10;;;;;;;;;;4912107;29;20043;-76
2023/01/20 09:23:34;;;;;;;151.27;37.50;;;;;;;;;;4893672;29;20052;-75
2023/01/20 09:26:04;;;;;;;132.45;36.33;;;1.40;99.90;;;;;;4918678;29;20044;-76
2023/01/20 09:28:31;;;;;;;144.90;37.28;;;;;;;;;;4911318;29;20123;-76
2023/01/20 09:30:58;;;;;;;139.55;36.33;;;;;;;;;;4898955;29;20035;-76
2023/01/20 09:33:24;;;;;;;156.70;37.75;;;;;;;;;;4903194;29;20035;-76
2023/01/20 09:35:53;;;;;;;133.63;34.88;;;;;;;;;;4918641;29;20044;-76
2023/01/20 09:44:05;;;;;;;131.82;35.45;;;;;;;;;;4910672;29;20079;-75
2023/01/20 09:46:35;;;;;;;;;;;;;;;;;;4910969;29;20047;-75
2023/01/20 09:55:14;;;;;;;133.68;33.90;;;1.60;99.90;;;;;;4911411;29;20108;-75
2023/01/20 09:57:47;;;;;;;125.68;30.73;;;1.60;99.90;;;;;;4899811;29;20036;-75
2023/01/20 10:00:31;;;;;;;126.95;33.53;;;;;;;;;;4899656;29;20066;-75
2023/01/20 10:03:12;;;;;;;132.00;33.55;;;1.60;99.90;;;;;;4907655;29;20040;-78
2023/01/20 10:05:43;;;;;;;143.25;33.47;;;;;;;;;;4917297;29;20036;-77
2023/01/20 10:08:17;;;;;;;131.45;34.53;;;1.60;99.90;;;;;;4912296;29;20144;-77
2023/01/20 10:10:55;;;;;;;137.00;33.40;;;;;;;;;;4902210;29;20044;-77
2023/01/20 10:13:28;;;;;;;133.40;33.60;;;;;;;;;;4886355;29;20036;-77
2023/01/20 10:15:56;;;;;;;131.15;32.58;;;;;;;;;;4896726;29;20401;-78
2023/01/20 10:18:28;;;;;;;129.70;32.15;;;;;;;;;;4885908;29;20046;-77
2023/01/20 10:21:25;;;;;;;144.93;35.42;;;1.70;99.90;;;;;;4895704;29;20044;-78
2023/01/20 10:23:56;;;;;;;124.32;32.70;;;;;;;;;;4901318;29;20111;-77
2023/01/20 10:26:31;;;;;;;140.35;33.55;;;;;;;;;;4917941;29;20515;-78
2023/01/20 10:29:06;;;;;;;125.88;31.85;;;;;;;;;;4920717;29;20044;-77
2023/01/20 10:31:34;;;;;;;131.32;31.95;;;;;;;;;;4937966;29;20098;-77
2023/01/20 10:34:05;;;;;;;135.93;34.45;;;;;;;;;;4923379;29;20039;-77
2023/01/20 10:36:33;;;;;;;135.10;32.33;;;;;;;;;;4922262;29;20040;-78
2023/01/20 10:39:12;;;;;;;154.93;36.20;;;;;;;;;;4920329;29;20044;-78
2023/01/20 10:41:38;;;;;;;128.02;31.10;;;;;;;;;;4922357;29;20054;-78
2023/01/20 10:44:09;;;;;;;143.45;35.95;;;;;;;;;;4923912;29;20379;-78
2023/01/20 10:46:50;;;;;;;132.32;33.70;;;;;;;;;;4933484;29;20107;-78
2023/01/20 10:49:16;;;;;;;131.73;33.03;;;;;;;;;;4904094;29;20043;-78
2023/01/20 10:51:53;;;;;;;132.73;33.80;;;2.00;99.90;;;;;;4919667;29;20055;-78
2023/01/20 10:54:25;;;;;;;138.48;32.35;;;;;;;;;;4919823;29;20127;-77
2023/01/20 10:56:56;;;;;;;145.77;33.55;;;;;;;;;;4919682;29;20107;-76
2023/01/20 10:59:30;;;;;;;139.75;36.33;;;;;;;;;;4919720;29;20051;-78
2023/01/20 11:02:00;;;;;;;129.02;32.25;;;;;;;;;;4919232;29;20534;-78
2023/01/20 11:04:27;;;;;;;137.20;34.33;;;1.80;99.90;;;;;;4935263;29;20043;-78
2023/01/20 11:07:02;;;;;;;127.50;33.45;;;;;;;;;;4919712;29;20062;-78
2023/01/20 11:09:37;;;;;;;121.07;33.28;;;;;;;;;;4919525;29;20050;-78
2023/01/20 11:12:11;;;;;;;132.45;32.95;;;2.00;99.90;;;;;;4903721;29;20052;-78
2023/01/20 11:14:37;;;;;;;136.27;34.53;;;;;;;;;;4913891;29;20068;-77
2023/01/20 11:17:06;;;;;;;123.07;31.10;;;2.10;99.90;;;;;;4919548;29;20421;-78
2023/01/20 11:19:48;;;;;;;126.60;33.25;;;;;;;;;;4903918;29;20147;-78
2023/01/20 11:22:19;;;;;;;126.20;33.35;;;2.00;99.90;;;;;;4919254;29;20050;-76
2023/01/20 11:24:46;;;;;;;130.93;32.95;;;;;;;;;;4918851;29;20070;-78
2023/01/20 11:27:14;;;;;;;119.82;31.48;;;;;;;;;;4919165;29;20083;-78
2023/01/20 11:29:42;;;;;;;113.07;31.70;;;;;;;;;;4919547;29;20043;-78
2023/01/20 11:32:40;;;;;;;108.22;31.20;;;2.20;99.90;;;;;;4900322;29;20043;-78
2023/01/20 11:35:18;;;;;;;118.32;31.48;;;;;;;;;;4902891;29;21340;-78
2023/01/20 11:37:44;;;;;;;118.43;32.22;;;;;;;;;;4903447;29;20119;-78
2023/01/20 11:40:16;;;;;;;111.80;29.25;;;;;;;;;;4918995;29;20072;-78
2023/01/20 11:42:44;;;;;;;124.43;33.20;;;;;;;;;;4919065;29;20040;-78
2023/01/20 11:45:31;;;;;;;126.25;32.15;;;;;;;;;;4908597;29;20500;-78
2023/01/20 11:48:04;;;;;;;121.28;31.10;;;2.20;99.90;;;;;;4903072;29;20046;-78
2023/01/20 11:50:30;;;;;;;111.78;30.30;;;;;;;;;;4918322;29;20051;-78
2023/01/20 11:53:11;;;;;;;119.40;31.85;;;;;;;;;;4918807;29;20488;-78
2023/01/20 11:55:47;;;;;;;113.38;31.15;;;;;;;;;;4935913;29;20500;-78
2023/01/20 11:58:19;;;;;;;127.68;31.05;;;;;;;;;;4918644;29;20048;-78
2023/01/20 12:00:45;;;;;;;115.60;31.50;;;2.20;99.90;;;;;;4918442;29;20051;-78
2023/01/20 12:03:14;;;;;;;119.30;30.98;;;;;;;;;;4918899;29;20056;-78
2023/01/20 12:05:43;;;;;;;106.18;27.88;;;;;;;;;;4918784;29;20047;-78
2023/01/20 12:08:22;;;;;;;103.93;29.55;;;2.30;99.90;;;;;;4918953;29;20052;-78
2023/01/20 12:10:49;;;;;;;113.10;32.03;;;2.40;99.90;;;;;;4914094;29;20058;-78
2023/01/20 12:13:16;;;;;;;113.03;29.77;;;;;;;;;;4918634;29;20083;-78
2023/01/20 12:15:43;;;;;;;115.97;31.75;;;;;;;;;;4905950;29;20085;-76
2023/01/20 12:18:17;;;;;;;119.63;31.55;;;;;;;;;;4936372;29;20118;-77
2023/01/20 12:20:49;;;;;;;119.22;32.20;;;;;;;;;;4921623;29;20527;-76
2023/01/20 12:23:34;;;;;;;110.03;31.15;;;2.50;99.90;;;;;;4901739;29;20080;-76
2023/01/20 12:26:01;;;;;;;106.65;29.13;;;;;;;;;;4919469;29;20040;-76
2023/01/20 12:28:40;;;;;;;105.10;29.92;;;;;;;;;;4907467;29;20044;-77
2023/01/20 12:31:09;;;;;;;94.05;29.60;;;;;;;;;;4920435;29;20040;-77
2023/01/20 12:33:37;;;;;;;97.25;26.60;;;;;;;;;;4893595;29;20119;-77
2023/01/20 12:36:03;;;;;;;112.15;30.98;;;;;;;;;;4913349;29;20040;-77
2023/01/20 12:38:34;;;;;;;99.78;28.92;;;;;;;;;;4903496;29;20036;-77
2023/01/20 12:41:01;;;;;;;97.80;29.23;;;;;;;;;;4916989;29;20044;-77
2023/01/20 12:44:00;;;;;;;109.85;29.20;;;2.40;99.90;;;;;;4925069;29;20129;-76
2023/01/20 12:46:31;;;;;;;99.10;27.58;;;;;;;;;;4912826;29;20492;-77
2023/01/20 12:49:03;;;;;;;98.10;26.60;;;;;;;;;;4919728;29;20396;-75
2023/01/20 12:51:29;;;;;;;101.82;28.65;;;;;;;;;;4914541;29;20055;-77
2023/01/20 12:54:19;;;;;;;106.63;32.08;;;;;;;;;;4908234;29;20102;-77
2023/01/20 12:56:45;;;;;;;80.72;23.52;;;;;;;;;;4881345;29;20056;-77
2023/01/20 12:59:48;;;;;;;99.90;27.77;;;2.40;99.90;;;;;;4894076;29;20040;-77
2023/01/20 13:02:56;;;;;;;87.70;26.10;;;2.40;99.90;;;;;;4920216;29;20098;-77
2023/01/20 13:05:39;;;;;;;86.03;27.77;;;;;;;;;;4915666;29;20496;-75
2023/01/20 13:08:05;;;;;;;96.28;26.95;;;;;;;;;;4913431;29;20044;-77
2023/01/20 13:10:38;;;;;;;89.28;24.92;;;;;;;;;;4911052;29;20044;-77
2023/01/20 13:13:17;;;;;;;88.70;25.58;;;;;;;;;;4888111;29;20054;-77
2023/01/20 13:16:23;;;;;;;94.32;26.48;;;2.50;99.90;;;;;;4917701;29;20044;-77
2023/01/20 13:19:02;;;;;;;83.63;26.83;;;;;;;;;;4913260;29;20143;-77
2023/01/20 13:21:29;;;;;;;87.90;24.92;;;;;;;;;;4904320;29;20044;-77
2023/01/20 13:23:56;;;;;;;81.30;24.42;;;;;;;;;;4906496;29;20059;-77
2023/01/20 13:26:22;;;;;;;79.18;22.83;;;;;;;;;;4902732;29;20497;-77
2023/01/20 13:28:52;;;;;;;80.68;22.98;;;;;;;;;;4889427;29;20051;-77
2023/01/20 13:31:45;;;;;;;88.22;25.40;;;;;;;;;;4929457;29;20036;-77
2023/01/20 13:34:23;;;;;;;79.60;23.52;;;;;;;;;;4915761;29;20044;-75
2023/01/20 13:37:09;;;;;;;86.82;24.90;;;;;;;;;;4904083;29;20124;-75
2023/01/20 13:39:47;;;;;;;83.45;21.60;;;;;;;;;;4910890;29;20547;-77
2023/01/20 13:42:25;;;;;;;76.90;21.27;;;;;;;;;;4932784;29;20043;-75
2023/01/20 13:45:10;;;;;;;76.57;22.85;;;;;;;;;;4904940;29;20040;-75
2023/01/20 13:47:52;;;;;;;82.38;24.20;;;;;;;;;;4903424;29;20044;-75
2023/01/20 13:50:23;;;;;;;83.15;24.15;;;;;;;;;;4921987;29;20051;-75
2023/01/20 13:52:49;;;;;;;81.05;24.48;;;;;;;;;;4920723;29;20055;-75
2023/01/20 13:55:34;;;;;;;75.90;22.88;;;;;;;;;;4917079;29;20035;-72
2023/01/20 13:58:00;;;;;;;83.07;24.63;;;;;;;;;;4912404;29;20040;-75
2023/01/20 14:00:26;;;;;;;87.10;23.90;;;;;;;;;;4905575;29;20141;-72
2023/01/20 14:02:54;;;;;;;78.38;22.30;;;;;;;;;;4917962;29;20035;-72
2023/01/20 14:05:25;;;;;;;88.15;25.40;;;;;;;;;;4906683;29;20048;-72
2023/01/20 14:07:51;;;;;;;65.63;21.17;;;;;;;;;;4898805;29;20050;-74
2023/01/20 14:10:18;;;;;;;76.95;23.08;;;;;;;;;;4895995;29;20480;-74
2023/01/20 14:12:44;;;;;;;80.22;24.25;;;;;;;;;;4887626;29;20091;-74
2023/01/20 14:15:27;;;;;;;83.80;25.70;;;;;;;;;;4894134;29;20032;-74
2023/01/20 14:17:53;;;;;;;;;;;;;;;;;;4886564;29;20048;-74
2023/01/20 14:20:27;;;;;;;93.18;26.17;;;;;;;;;;4904255;29;19919;-74
2023/01/20 14:22:54;;;;;;;98.55;26.40;;;;;;;;;;4915884;29;20053;-74
2023/01/20 14:25:22;;;;;;;86.15;26.42;;;;;;;;;;4916765;29;20054;-74
2023/01/20 14:27:48;;;;;;;84.88;24.50;;;;;;;;;;4905799;29;20037;-74